sensor_id;sensor_type;location;lat;lon;timestamp;temperature;humidity
33456;DHT22;19791;51.916;8.412;2023-06-26T00:48:46;20.20;99.90
33456;DHT22;19791;51.916;8.412;2023-06-26T00:51:13;20.10;99.90
33456;DHT22;19791;51.916;8.412;2023-06-26T00:53:39;20.10;99.90
33456;DHT22;19791;51.916;8.412;2023-06-26T00:56:05;20.10;99.90
33456;DHT22;19791;51.916;8.412;2023-06-26T00:58:32;20.10;99.90
33456;DHT22;19791;51.916;8.412;2023-06-26T01:00:57;20.00;99.90
33456;DHT22;19791;51.916;8.412;2023-06-26T01:03:25;19.90;99.90
33456;DHT22;19791;51.916;8.412;2023-06-26T01:05:52;19.90;99.90
33456;DHT22;19791;51.916;8.412;2023-06-26T01:08:20;19.90;99.90
33456;DHT22;19791;51.916;8.412;2023-06-26T01:14:24;19.70;99.90
33456;DHT22;19791;51.916;8.412;2023-06-26T01:16:50;19.70;99.90
33456;DHT22;19791;51.916;8.412;2023-06-26T01:19:23;19.70;99.90
33456;DHT22;19791;51.916;8.412;2023-06-26T01:22:13;19.60;99.90
33456;DHT22;19791;51.916;8.412;2023-06-26T01:24:47;19.60;99.90
33456;DHT22;19791;51.916;8.412;2023-06-26T01:27:21;19.50;99.90
33456;DHT22;19791;51.916;8.412;2023-06-26T01:29:49;19.50;99.90
33456;DHT22;19791;51.916;8.412;2023-06-26T01:32:15;19.50;99.90
33456;DHT22;19791;51.916;8.412;2023-06-26T01:34:42;19.50;99.90
33456;DHT22;19791;51.916;8.412;2023-06-26T01:37:08;19.40;99.90
33456;DHT22;19791;51.916;8.412;2023-06-26T01:39:34;19.40;99.90
33456;DHT22;19791;51.916;8.412;2023-06-26T01:42:00;19.40;99.90
33456;DHT22;19791;51.916;8.412;2023-06-26T01:44:30;19.40;99.90
33456;DHT22;19791;51.916;8.412;2023-06-26T01:47:04;19.50;99.90
33456;DHT22;19791;51.916;8.412;2023-06-26T01:52:21;19.50;99.90
33456;DHT22;19791;51.916;8.412;2023-06-26T01:57:38;19.50;99.90
33456;DHT22;19791;51.916;8.412;2023-06-26T02:00:05;19.50;99.90
33456;DHT22;19791;51.916;8.412;2023-06-26T02:02:34;19.50;99.90
33456;DHT22;19791;51.916;8.412;2023-06-26T02:05:00;19.50;99.90
33456;DHT22;19791;51.916;8.412;2023-06-26T02:07:25;19.50;99.90
33456;DHT22;19791;51.916;8.412;2023-06-26T02:09:51;19.50;99.90
33456;DHT22;19791;51.916;8.412;2023-06-26T02:12:17;19.50;99.90
33456;DHT22;19791;51.916;8.412;2023-06-26T02:14:42;19.50;99.90
33456;DHT22;19791;51.916;8.412;2023-06-26T02:17:08;19.40;99.90
33456;DHT22;19791;51.916;8.412;2023-06-26T02:19:34;19.50;99.90
33456;DHT22;19791;51.916;8.412;2023-06-26T02:21:59;19.40;99.90
33456;DHT22;19791;51.916;8.412;2023-06-26T02:24:25;19.40;99.90
33456;DHT22;19791;51.916;8.412;2023-06-26T02:26:55;19.50;99.90
33456;DHT22;19791;51.916;8.412;2023-06-26T02:29:21;19.50;99.90
33456;DHT22;19791;51.916;8.412;2023-06-26T02:31:47;19.50;99.90
33456;DHT22;19791;51.916;8.412;2023-06-26T02:34:13;19.40;99.90
33456;DHT22;19791;51.916;8.412;2023-06-26T02:36:38;19.40;99.90
33456;DHT22;19791;51.916;8.412;2023-06-26T02:39:05;19.40;99.90
33456;DHT22;19791;51.916;8.412;2023-06-26T02:41:30;19.40;99.90
33456;DHT22;19791;51.916;8.412;2023-06-26T02:43:56;19.40;99.90
33456;DHT22;19791;51.916;8.412;2023-06-26T02:46:21;19.40;99.90
33456;DHT22;19791;51.916;8.412;2023-06-26T02:48:47;19.40;99.90
33456;DHT22;19791;51.916;8.412;2023-06-26T02:51:13;19.40;99.90
33456;DHT22;19791;51.916;8.412;2023-06-26T02:53:39;19.40;99.90
33456;DHT22;19791;51.916;8.412;2023-06-26T02:56:04;19.40;99.90
33456;DHT22;19791;51.916;8.412;2023-06-26T02:58:30;19.30;99.90
33456;DHT22;19791;51.916;8.412;2023-06-26T03:01:26;19.30;99.90
33456;DHT22;19791;51.916;8.412;2023-06-26T03:03:51;19.20;99.90
33456;DHT22;19791;51.916;8.412;2023-06-26T03:06:18;19.20;99.90
33456;DHT22;19791;51.916;8.412;2023-06-26T03:08:43;19.20;99.90
33456;DHT22;19791;51.916;8.412;2023-06-26T03:11:09;19.10;99.90
33456;DHT22;19791;51.916;8.412;2023-06-26T03:13:36;19.10;99.90
33456;DHT22;19791;51.916;8.412;2023-06-26T03:16:02;19.10;99.90
33456;DHT22;19791;51.916;8.412;2023-06-26T03:18:28;19.00;99.90
33456;DHT22;19791;51.916;8.412;2023-06-26T03:20:55;19.00;99.90
33456;DHT22;19791;51.916;8.412;2023-06-26T03:23:21;18.90;99.90
33456;DHT22;19791;51.916;8.412;2023-06-26T03:25:48;18.90;99.90
33456;DHT22;19791;51.916;8.412;2023-06-26T03:28:14;18.90;99.90
33456;DHT22;19791;51.916;8.412;2023-06-26T03:30:39;18.90;99.90
33456;DHT22;19791;51.916;8.412;2023-06-26T03:33:05;18.90;99.90
33456;DHT22;19791;51.916;8.412;2023-06-26T03:35:31;18.90;99.90
33456;DHT22;19791;51.916;8.412;2023-06-26T03:37:57;18.90;99.90
33456;DHT22;19791;51.916;8.412;2023-06-26T03:40:23;18.90;99.90
33456;DHT22;19791;51.916;8.412;2023-06-26T03:42:49;18.90;99.90
33456;DHT22;19791;51.916;8.412;2023-06-26T03:45:15;18.90;99.90
33456;DHT22;19791;51.916;8.412;2023-06-26T03:47:41;18.90;99.90
33456;DHT22;19791;51.916;8.412;2023-06-26T03:50:07;18.90;99.90
33456;DHT22;19791;51.916;8.412;2023-06-26T03:52:32;18.90;99.90
33456;DHT22;19791;51.916;8.412;2023-06-26T03:54:58;19.00;99.90
33456;DHT22;19791;51.916;8.412;2023-06-26T03:57:24;18.90;99.90
33456;DHT22;19791;51.916;8.412;2023-06-26T03:59:51;18.90;99.90
33456;DHT22;19791;51.916;8.412;2023-06-26T04:02:16;18.90;99.90
33456;DHT22;19791;51.916;8.412;2023-06-26T04:04:42;19.00;99.90
33456;DHT22;19791;51.916;8.412;2023-06-26T04:07:08;19.00;99.90
33456;DHT22;19791;51.916;8.412;2023-06-26T04:09:33;19.00;99.90
33456;DHT22;19791;51.916;8.412;2023-06-26T04:11:59;19.00;99.90
33456;DHT22;19791;51.916;8.412;2023-06-26T04:14:24;19.10;99.90
33456;DHT22;19791;51.916;8.412;2023-06-26T04:16:50;19.10;99.90
33456;DHT22;19791;51.916;8.412;2023-06-26T04:19:16;19.20;99.90
33456;DHT22;19791;51.916;8.412;2023-06-26T04:21:42;19.20;99.90
33456;DHT22;19791;51.916;8.412;2023-06-26T04:24:08;19.30;99.90
33456;DHT22;19791;51.916;8.412;2023-06-26T04:26:34;19.40;99.90
33456;DHT22;19791;51.916;8.412;2023-06-26T04:29:00;19.40;99.90
33456;DHT22;19791;51.916;8.412;2023-06-26T04:31:25;19.50;99.90
33456;DHT22;19791;51.916;8.412;2023-06-26T04:33:51;19.60;99.90
33456;DHT22;19791;51.916;8.412;2023-06-26T04:36:20;19.70;99.90
33456;DHT22;19791;51.916;8.412;2023-06-26T04:38:46;19.70;99.90
33456;DHT22;19791;51.916;8.412;2023-06-26T04:41:13;19.80;99.90
33456;DHT22;19791;51.916;8.412;2023-06-26T04:43:39;19.90;99.90
33456;DHT22;19791;51.916;8.412;2023-06-26T04:46:05;20.00;99.90
33456;DHT22;19791;51.916;8.412;2023-06-26T04:48:31;20.10;99.90
33456;DHT22;19791;51.916;8.412;2023-06-26T04:50:57;20.20;99.90
33456;DHT22;19791;51.916;8.412;2023-06-26T04:53:24;20.30;99.90
33456;DHT22;19791;51.916;8.412;2023-06-26T04:55:51;20.40;99.90
33456;DHT22;19791;51.916;8.412;2023-06-26T04:58:17;20.50;99.90
33456;DHT22;19791;51.916;8.412;2023-06-26T05:00:43;20.60;99.90
33456;DHT22;19791;51.916;8.412;2023-06-26T05:03:13;20.70;99.90
33456;DHT22;19791;51.916;8.412;2023-06-26T05:05:39;21.00;99.90
33456;DHT22;19791;51.916;8.412;2023-06-26T05:08:18;21.20;99.90
33456;DHT22;19791;51.916;8.412;2023-06-26T05:10:44;21.50;99.90
33456;DHT22;19791;51.916;8.412;2023-06-26T05:13:10;21.70;99.90
33456;DHT22;19791;51.916;8.412;2023-06-26T05:15:36;21.80;99.90
33456;DHT22;19791;51.916;8.412;2023-06-26T05:18:02;21.90;99.90
33456;DHT22;19791;51.916;8.412;2023-06-26T05:20:28;21.90;99.90
33456;DHT22;19791;51.916;8.412;2023-06-26T05:22:54;22.00;99.90
33456;DHT22;19791;51.916;8.412;2023-06-26T05:25:20;22.00;99.90
33456;DHT22;19791;51.916;8.412;2023-06-26T05:27:47;22.10;99.90
33456;DHT22;19791;51.916;8.412;2023-06-26T05:30:13;22.20;99.90
33456;DHT22;19791;51.916;8.412;2023-06-26T05:32:40;22.20;99.90
33456;DHT22;19791;51.916;8.412;2023-06-26T05:35:06;22.30;99.90
33456;DHT22;19791;51.916;8.412;2023-06-26T05:37:42;22.40;99.90
33456;DHT22;19791;51.916;8.412;2023-06-26T05:40:08;22.50;99.90
33456;DHT22;19791;51.916;8.412;2023-06-26T05:42:35;22.70;99.90
33456;DHT22;19791;51.916;8.412;2023-06-26T05:45:24;22.80;99.90
33456;DHT22;19791;51.916;8.412;2023-06-26T05:47:50;23.00;99.90
33456;DHT22;19791;51.916;8.412;2023-06-26T05:50:18;23.20;99.60
33456;DHT22;19791;51.916;8.412;2023-06-26T05:52:48;23.40;98.00
33456;DHT22;19791;51.916;8.412;2023-06-26T05:55:28;23.70;97.70
33456;DHT22;19791;51.916;8.412;2023-06-26T05:57:58;24.00;95.90
33456;DHT22;19791;51.916;8.412;2023-06-26T06:00:25;24.20;94.60
33456;DHT22;19791;51.916;8.412;2023-06-26T06:02:52;24.40;93.90
33456;DHT22;19791;51.916;8.412;2023-06-26T06:05:20;24.50;93.70
33456;DHT22;19791;51.916;8.412;2023-06-26T06:07:46;24.50;93.20
33456;DHT22;19791;51.916;8.412;2023-06-26T06:10:12;24.40;93.50
33456;DHT22;19791;51.916;8.412;2023-06-26T06:12:38;24.20;93.70
33456;DHT22;19791;51.916;8.412;2023-06-26T06:15:04;24.00;94.30
33456;DHT22;19791;51.916;8.412;2023-06-26T06:17:30;23.80;94.30
33456;DHT22;19791;51.916;8.412;2023-06-26T06:19:56;23.80;94.90
33456;DHT22;19791;51.916;8.412;2023-06-26T06:22:22;23.70;94.80
33456;DHT22;19791;51.916;8.412;2023-06-26T06:24:49;23.70;95.10
33456;DHT22;19791;51.916;8.412;2023-06-26T06:27:15;23.70;96.30
33456;DHT22;19791;51.916;8.412;2023-06-26T06:29:41;23.70;96.10
33456;DHT22;19791;51.916;8.412;2023-06-26T06:32:07;23.80;95.80
33456;DHT22;19791;51.916;8.412;2023-06-26T06:34:33;23.80;96.10
33456;DHT22;19791;51.916;8.412;2023-06-26T06:36:58;23.90;96.10
33456;DHT22;19791;51.916;8.412;2023-06-26T06:39:24;24.10;96.40
33456;DHT22;19791;51.916;8.412;2023-06-26T06:41:50;24.20;95.80
33456;DHT22;19791;51.916;8.412;2023-06-26T06:44:15;24.40;95.10
33456;DHT22;19791;51.916;8.412;2023-06-26T06:46:41;24.40;94.70
33456;DHT22;19791;51.916;8.412;2023-06-26T06:49:08;24.50;94.70
33456;DHT22;19791;51.916;8.412;2023-06-26T06:51:34;24.70;94.80
33456;DHT22;19791;51.916;8.412;2023-06-26T06:54:01;24.80;95.30
33456;DHT22;19791;51.916;8.412;2023-06-26T06:56:28;24.80;94.10
33456;DHT22;19791;51.916;8.412;2023-06-26T06:58:54;24.80;94.90
33456;DHT22;19791;51.916;8.412;2023-06-26T07:01:22;24.60;95.40
33456;DHT22;19791;51.916;8.412;2023-06-26T07:03:48;24.40;95.10
33456;DHT22;19791;51.916;8.412;2023-06-26T07:06:14;24.20;96.10
33456;DHT22;19791;51.916;8.412;2023-06-26T07:08:39;23.90;96.50
33456;DHT22;19791;51.916;8.412;2023-06-26T07:11:05;23.90;97.30
33456;DHT22;19791;51.916;8.412;2023-06-26T07:13:32;23.90;98.00
33456;DHT22;19791;51.916;8.412;2023-06-26T07:15:57;23.90;98.10
33456;DHT22;19791;51.916;8.412;2023-06-26T07:18:23;23.90;98.40
33456;DHT22;19791;51.916;8.412;2023-06-26T07:20:48;24.00;98.20
33456;DHT22;19791;51.916;8.412;2023-06-26T08:18:30;24.70;96.10
33456;DHT22;19791;51.916;8.412;2023-06-26T08:20:56;24.20;97.40
33456;DHT22;19791;51.916;8.412;2023-06-26T08:23:21;23.90;99.00
33456;DHT22;19791;51.916;8.412;2023-06-26T08:25:47;23.60;99.90
33456;DHT22;19791;51.916;8.412;2023-06-26T08:28:14;23.60;99.90
33456;DHT22;19791;51.916;8.412;2023-06-26T08:30:39;23.70;99.90
33456;DHT22;19791;51.916;8.412;2023-06-26T08:33:05;24.10;99.90
33456;DHT22;19791;51.916;8.412;2023-06-26T08:35:35;24.50;99.90
33456;DHT22;19791;51.916;8.412;2023-06-26T08:38:01;24.70;98.90
33456;DHT22;19791;51.916;8.412;2023-06-26T08:40:27;24.80;98.50
33456;DHT22;19791;51.916;8.412;2023-06-26T08:42:54;25.00;98.00
33456;DHT22;19791;51.916;8.412;2023-06-26T08:45:20;25.00;96.60
33456;DHT22;19791;51.916;8.412;2023-06-26T08:47:48;25.00;97.50
33456;DHT22;19791;51.916;8.412;2023-06-26T08:50:18;25.40;97.80
33456;DHT22;19791;51.916;8.412;2023-06-26T08:53:05;25.80;96.40
33456;DHT22;19791;51.916;8.412;2023-06-26T08:55:35;26.20;94.70
33456;DHT22;19791;51.916;8.412;2023-06-26T08:58:15;26.60;93.90
33456;DHT22;19791;51.916;8.412;2023-06-26T09:00:41;26.90;93.30
33456;DHT22;19791;51.916;8.412;2023-06-26T09:03:17;27.10;93.00
33456;DHT22;19791;51.916;8.412;2023-06-26T09:08:46;26.40;92.60
33456;DHT22;19791;51.916;8.412;2023-06-26T09:11:15;26.20;93.30
33456;DHT22;19791;51.916;8.412;2023-06-26T09:13:44;26.10;93.90
33456;DHT22;19791;51.916;8.412;2023-06-26T09:16:26;26.00;94.10
33456;DHT22;19791;51.916;8.412;2023-06-26T09:18:52;26.20;94.20
33456;DHT22;19791;51.916;8.412;2023-06-26T09:21:24;27.10;93.00
33456;DHT22;19791;51.916;8.412;2023-06-26T09:23:50;28.00;91.30
33456;DHT22;19791;51.916;8.412;2023-06-26T09:26:16;28.30;89.80
33456;DHT22;19791;51.916;8.412;2023-06-26T09:28:42;27.60;88.30
33456;DHT22;19791;51.916;8.412;2023-06-26T09:31:08;27.40;91.40
33456;DHT22;19791;51.916;8.412;2023-06-26T09:33:37;28.00;90.20
33456;DHT22;19791;51.916;8.412;2023-06-26T09:36:06;27.90;87.10
33456;DHT22;19791;51.916;8.412;2023-06-26T09:38:34;27.60;87.50
33456;DHT22;19791;51.916;8.412;2023-06-26T09:41:01;27.50;88.20
33456;DHT22;19791;51.916;8.412;2023-06-26T09:43:27;28.10;88.50
33456;DHT22;19791;51.916;8.412;2023-06-26T09:45:53;28.20;85.10
33456;DHT22;19791;51.916;8.412;2023-06-26T09:48:19;28.20;85.50
33456;DHT22;19791;51.916;8.412;2023-06-26T09:50:46;28.70;84.00
33456;DHT22;19791;51.916;8.412;2023-06-26T09:53:12;29.60;82.80
33456;DHT22;19791;51.916;8.412;2023-06-26T09:55:39;30.20;79.30
33456;DHT22;19791;51.916;8.412;2023-06-26T09:58:06;30.50;76.40
33456;DHT22;19791;51.916;8.412;2023-06-26T10:00:33;30.00;75.90
33456;DHT22;19791;51.916;8.412;2023-06-26T10:02:59;29.40;78.30
33456;DHT22;19791;51.916;8.412;2023-06-26T10:05:26;29.90;78.50
33456;DHT22;19791;51.916;8.412;2023-06-26T10:07:52;30.20;77.30
33456;DHT22;19791;51.916;8.412;2023-06-26T10:10:19;30.50;76.90
33456;DHT22;19791;51.916;8.412;2023-06-26T10:12:48;30.70;73.40
33456;DHT22;19791;51.916;8.412;2023-06-26T10:15:15;30.00;73.50
33456;DHT22;19791;51.916;8.412;2023-06-26T10:17:43;28.70;75.80
33456;DHT22;19791;51.916;8.412;2023-06-26T10:20:10;27.40;79.60
33456;DHT22;19791;51.916;8.412;2023-06-26T10:22:45;26.80;83.70
33456;DHT22;19791;51.916;8.412;2023-06-26T10:25:16;26.40;84.80
33456;DHT22;19791;51.916;8.412;2023-06-26T10:27:46;26.20;86.80
33456;DHT22;19791;51.916;8.412;2023-06-26T10:30:19;26.20;86.30
33456;DHT22;19791;51.916;8.412;2023-06-26T10:32:46;26.40;87.70
33456;DHT22;19791;51.916;8.412;2023-06-26T10:35:12;27.40;85.60
33456;DHT22;19791;51.916;8.412;2023-06-26T10:37:45;28.60;81.40
33456;DHT22;19791;51.916;8.412;2023-06-26T10:40:12;29.50;76.10
33456;DHT22;19791;51.916;8.412;2023-06-26T10:42:39;29.70;74.20
33456;DHT22;19791;51.916;8.412;2023-06-26T10:45:19;28.90;74.50
33456;DHT22;19791;51.916;8.412;2023-06-26T10:47:51;27.60;75.80
33456;DHT22;19791;51.916;8.412;2023-06-26T10:50:29;26.50;79.20
33456;DHT22;19791;51.916;8.412;2023-06-26T10:55:58;25.70;83.80
33456;DHT22;19791;51.916;8.412;2023-06-26T10:58:41;25.70;83.20
33456;DHT22;19791;51.916;8.412;2023-06-26T11:01:23;25.80;83.90
33456;DHT22;19791;51.916;8.412;2023-06-26T11:04:06;27.00;80.10
33456;DHT22;19791;51.916;8.412;2023-06-26T11:06:33;28.40;76.50
33456;DHT22;19791;51.916;8.412;2023-06-26T11:14:21;30.40;65.00
33456;DHT22;19791;51.916;8.412;2023-06-26T11:16:47;29.40;66.60
33456;DHT22;19791;51.916;8.412;2023-06-26T11:19:14;28.60;68.90
33456;DHT22;19791;51.916;8.412;2023-06-26T11:21:40;27.70;68.90
33456;DHT22;19791;51.916;8.412;2023-06-26T11:24:08;26.90;70.80
33456;DHT22;19791;51.916;8.412;2023-06-26T11:26:41;26.50;73.40
33456;DHT22;19791;51.916;8.412;2023-06-26T11:29:07;27.20;76.20
33456;DHT22;19791;51.916;8.412;2023-06-26T11:31:39;28.40;70.20
33456;DHT22;19791;51.916;8.412;2023-06-26T11:34:06;29.30;68.30
33456;DHT22;19791;51.916;8.412;2023-06-26T11:36:37;30.30;65.80
33456;DHT22;19791;51.916;8.412;2023-06-26T11:39:06;31.00;64.30
33456;DHT22;19791;51.916;8.412;2023-06-26T11:41:37;31.30;61.00
33456;DHT22;19791;51.916;8.412;2023-06-26T11:44:06;31.00;63.10
33456;DHT22;19791;51.916;8.412;2023-06-26T11:46:33;30.70;64.20
33456;DHT22;19791;51.916;8.412;2023-06-26T11:48:59;31.10;62.00
33456;DHT22;19791;51.916;8.412;2023-06-26T11:51:27;31.10;58.50
33456;DHT22;19791;51.916;8.412;2023-06-26T11:53:54;31.70;58.60
33456;DHT22;19791;51.916;8.412;2023-06-26T11:56:20;32.20;57.80
33456;DHT22;19791;51.916;8.412;2023-06-26T11:59:05;32.50;56.40
33456;DHT22;19791;51.916;8.412;2023-06-26T12:01:43;33.00;56.30
33456;DHT22;19791;51.916;8.412;2023-06-26T12:04:16;33.20;55.00
33456;DHT22;19791;51.916;8.412;2023-06-26T12:06:46;33.00;54.90
33456;DHT22;19791;51.916;8.412;2023-06-26T12:09:13;32.80;55.40
33456;DHT22;19791;51.916;8.412;2023-06-26T12:11:42;32.90;53.70
33456;DHT22;19791;51.916;8.412;2023-06-26T12:14:08;33.20;55.40
33456;DHT22;19791;51.916;8.412;2023-06-26T12:16:35;33.80;53.10
33456;DHT22;19791;51.916;8.412;2023-06-26T12:19:02;33.90;53.10
33456;DHT22;19791;51.916;8.412;2023-06-26T12:24:01;32.60;53.10
33456;DHT22;19791;51.916;8.412;2023-06-26T12:26:27;32.50;53.60
33456;DHT22;19791;51.916;8.412;2023-06-26T12:29:04;32.80;53.10
33456;DHT22;19791;51.916;8.412;2023-06-26T12:31:31;32.80;52.70
33456;DHT22;19791;51.916;8.412;2023-06-26T12:33:57;33.40;52.60
33456;DHT22;19791;51.916;8.412;2023-06-26T12:36:23;33.30;50.70
33456;DHT22;19791;51.916;8.412;2023-06-26T12:38:49;32.40;50.40
33456;DHT22;19791;51.916;8.412;2023-06-26T12:41:15;32.00;53.40
33456;DHT22;19791;51.916;8.412;2023-06-26T12:43:42;31.30;52.50
33456;DHT22;19791;51.916;8.412;2023-06-26T12:46:07;30.70;56.10
33456;DHT22;19791;51.916;8.412;2023-06-26T12:48:40;30.40;54.60
33456;DHT22;19791;51.916;8.412;2023-06-26T12:51:16;29.50;55.90
33456;DHT22;19791;51.916;8.412;2023-06-26T12:53:42;28.80;57.20
33456;DHT22;19791;51.916;8.412;2023-06-26T12:56:09;28.60;57.90
33456;DHT22;19791;51.916;8.412;2023-06-26T12:58:35;28.70;58.80
33456;DHT22;19791;51.916;8.412;2023-06-26T13:01:05;28.90;58.90
33456;DHT22;19791;51.916;8.412;2023-06-26T13:03:31;28.80;58.50
33456;DHT22;19791;51.916;8.412;2023-06-26T13:05:57;28.40;59.30
33456;DHT22;19791;51.916;8.412;2023-06-26T13:08:22;28.80;60.80
33456;DHT22;19791;51.916;8.412;2023-06-26T13:10:53;29.20;59.50
33456;DHT22;19791;51.916;8.412;2023-06-26T13:13:28;29.30;57.10
33456;DHT22;19791;51.916;8.412;2023-06-26T13:15:54;29.80;56.30
33456;DHT22;19791;51.916;8.412;2023-06-26T13:18:20;30.60;56.00
33456;DHT22;19791;51.916;8.412;2023-06-26T13:20:46;31.30;55.30
33456;DHT22;19791;51.916;8.412;2023-06-26T13:23:12;31.70;53.50
33456;DHT22;19791;51.916;8.412;2023-06-26T13:25:37;31.50;51.80
33456;DHT22;19791;51.916;8.412;2023-06-26T13:28:03;31.70;53.50
33456;DHT22;19791;51.916;8.412;2023-06-26T13:30:29;31.20;53.00
33456;DHT22;19791;51.916;8.412;2023-06-26T13:32:55;30.00;55.20
33456;DHT22;19791;51.916;8.412;2023-06-26T13:35:20;28.70;56.70
33456;DHT22;19791;51.916;8.412;2023-06-26T13:37:46;28.00;57.20
33456;DHT22;19791;51.916;8.412;2023-06-26T13:40:12;27.70;57.70
33456;DHT22;19791;51.916;8.412;2023-06-26T13:42:38;27.80;57.80
33456;DHT22;19791;51.916;8.412;2023-06-26T13:45:05;27.90;57.70
33456;DHT22;19791;51.916;8.412;2023-06-26T13:47:31;28.50;57.90
33456;DHT22;19791;51.916;8.412;2023-06-26T13:49:56;28.30;56.70
33456;DHT22;19791;51.916;8.412;2023-06-26T13:52:23;28.60;58.10
33456;DHT22;19791;51.916;8.412;2023-06-26T13:54:48;28.60;56.80
33456;DHT22;19791;51.916;8.412;2023-06-26T13:57:14;28.30;57.40
33456;DHT22;19791;51.916;8.412;2023-06-26T13:59:40;28.20;58.30
33456;DHT22;19791;51.916;8.412;2023-06-26T14:02:07;28.10;58.00
33456;DHT22;19791;51.916;8.412;2023-06-26T14:04:33;28.10;58.00
33456;DHT22;19791;51.916;8.412;2023-06-26T14:06:58;28.70;57.90
33456;DHT22;19791;51.916;8.412;2023-06-26T14:09:24;28.80;56.70
33456;DHT22;19791;51.916;8.412;2023-06-26T14:11:50;28.70;57.10
33456;DHT22;19791;51.916;8.412;2023-06-26T14:14:16;28.30;58.60
33456;DHT22;19791;51.916;8.412;2023-06-26T14:16:42;28.10;58.20
33456;DHT22;19791;51.916;8.412;2023-06-26T14:19:07;28.70;57.40
33456;DHT22;19791;51.916;8.412;2023-06-26T14:21:41;29.40;56.50
33456;DHT22;19791;51.916;8.412;2023-06-26T14:24:07;29.40;55.40
33456;DHT22;19791;51.916;8.412;2023-06-26T14:26:32;28.80;55.30
33456;DHT22;19791;51.916;8.412;2023-06-26T14:28:59;28.10;55.70
33456;DHT22;19791;51.916;8.412;2023-06-26T14:31:26;27.70;56.60
33456;DHT22;19791;51.916;8.412;2023-06-26T14:33:52;28.40;57.10
33456;DHT22;19791;51.916;8.412;2023-06-26T14:36:17;28.80;54.60
33456;DHT22;19791;51.916;8.412;2023-06-26T14:38:44;28.40;54.10
33456;DHT22;19791;51.916;8.412;2023-06-26T14:41:11;27.80;55.20
33456;DHT22;19791;51.916;8.412;2023-06-26T14:43:38;27.40;55.90
33456;DHT22;19791;51.916;8.412;2023-06-26T14:46:03;27.40;56.30
33456;DHT22;19791;51.916;8.412;2023-06-26T14:48:29;27.40;57.00
33456;DHT22;19791;51.916;8.412;2023-06-26T14:50:55;27.60;58.20
33456;DHT22;19791;51.916;8.412;2023-06-26T14:53:20;28.20;56.00
33456;DHT22;19791;51.916;8.412;2023-06-26T14:55:46;28.50;54.20
33456;DHT22;19791;51.916;8.412;2023-06-26T14:58:12;28.80;53.80
33456;DHT22;19791;51.916;8.412;2023-06-26T15:00:37;29.20;54.60
33456;DHT22;19791;51.916;8.412;2023-06-26T15:03:03;29.40;54.40
33456;DHT22;19791;51.916;8.412;2023-06-26T15:05:29;29.50;52.60
33456;DHT22;19791;51.916;8.412;2023-06-26T15:07:54;29.50;52.80
33456;DHT22;19791;51.916;8.412;2023-06-26T15:10:20;29.30;52.00
33456;DHT22;19791;51.916;8.412;2023-06-26T15:12:47;29.40;52.20
33456;DHT22;19791;51.916;8.412;2023-06-26T15:15:12;29.30;51.20
33456;DHT22;19791;51.916;8.412;2023-06-26T15:17:39;29.00;49.80
33456;DHT22;19791;51.916;8.412;2023-06-26T15:20:05;28.80;50.80
33456;DHT22;19791;51.916;8.412;2023-06-26T15:22:31;28.10;50.80
33456;DHT22;19791;51.916;8.412;2023-06-26T15:25:12;27.50;52.10
33456;DHT22;19791;51.916;8.412;2023-06-26T15:27:38;27.10;53.50
33456;DHT22;19791;51.916;8.412;2023-06-26T15:30:04;26.60;54.20
33456;DHT22;19791;51.916;8.412;2023-06-26T15:32:34;26.50;55.30
33456;DHT22;19791;51.916;8.412;2023-06-26T15:35:00;26.60;56.10
33456;DHT22;19791;51.916;8.412;2023-06-26T15:37:25;26.50;55.60
33456;DHT22;19791;51.916;8.412;2023-06-26T15:39:51;26.40;55.60
33456;DHT22;19791;51.916;8.412;2023-06-26T15:42:17;26.20;56.40
33456;DHT22;19791;51.916;8.412;2023-06-26T15:44:42;26.20;56.30
33456;DHT22;19791;51.916;8.412;2023-06-26T15:47:09;26.20;56.20
33456;DHT22;19791;51.916;8.412;2023-06-26T15:49:35;26.20;57.00
33456;DHT22;19791;51.916;8.412;2023-06-26T15:52:00;26.10;56.60
33456;DHT22;19791;51.916;8.412;2023-06-26T15:54:26;26.00;57.50
33456;DHT22;19791;51.916;8.412;2023-06-26T15:59:27;26.00;58.20
33456;DHT22;19791;51.916;8.412;2023-06-26T16:01:53;26.20;59.00
33456;DHT22;19791;51.916;8.412;2023-06-26T16:04:20;26.40;59.20
33456;DHT22;19791;51.916;8.412;2023-06-26T16:06:47;26.20;58.20
33456;DHT22;19791;51.916;8.412;2023-06-26T16:09:13;26.00;58.60
33456;DHT22;19791;51.916;8.412;2023-06-26T16:11:42;25.80;58.70
33456;DHT22;19791;51.916;8.412;2023-06-26T16:14:07;25.60;59.50
33456;DHT22;19791;51.916;8.412;2023-06-26T16:16:33;25.70;59.70
33456;DHT22;19791;51.916;8.412;2023-06-26T16:18:59;25.70;59.80
33456;DHT22;19791;51.916;8.412;2023-06-26T16:21:28;25.40;59.70
33456;DHT22;19791;51.916;8.412;2023-06-26T16:23:54;25.10;59.10
33456;DHT22;19791;51.916;8.412;2023-06-26T16:26:20;24.80;59.20
33456;DHT22;19791;51.916;8.412;2023-06-26T16:28:47;24.40;59.10
33456;DHT22;19791;51.916;8.412;2023-06-26T16:31:16;24.20;59.30
33456;DHT22;19791;51.916;8.412;2023-06-26T16:33:43;24.00;58.90
33456;DHT22;19791;51.916;8.412;2023-06-26T16:36:09;23.90;59.10
